createdAt,value
2022-10-18T00:00:46.715Z,13.97
2022-10-18T00:06:11.119Z,13.95
2022-10-18T00:11:14.272Z,13.91
2022-10-18T00:16:18.251Z,13.87
2022-10-18T00:21:23.538Z,13.80
2022-10-18T00:26:29.685Z,13.72
2022-10-18T00:31:35.966Z,13.61
2022-10-18T00:36:39.481Z,13.50
2022-10-18T00:41:43.409Z,13.41
2022-10-18T00:46:49.712Z,13.33
2022-10-18T00:51:55.968Z,13.25
2022-10-18T00:56:59.688Z,13.18
2022-10-18T01:02:03.252Z,13.16
2022-10-18T01:07:21.053Z,13.14
2022-10-18T01:12:42.284Z,13.10
2022-10-18T01:17:45.390Z,13.08
2022-10-18T01:22:50.951Z,13.05
2022-10-18T01:28:45.383Z,13.04
2022-10-18T01:33:56.058Z,13.05
2022-10-18T01:39:02.365Z,13.04
2022-10-18T01:44:10.786Z,13.04
2022-10-18T01:49:14.271Z,13.02
2022-10-18T01:54:27.923Z,13.01
2022-10-18T01:59:56.630Z,13.00
2022-10-18T02:05:24.617Z,12.98
2022-10-18T02:10:34.456Z,12.96
2022-10-18T02:15:44.448Z,12.91
2022-10-18T02:20:49.402Z,12.87
2022-10-18T02:25:53.835Z,12.83
2022-10-18T02:31:13.941Z,12.77
2022-10-18T02:36:33.837Z,12.72
2022-10-18T02:41:37.148Z,12.68
2022-10-18T02:46:40.867Z,12.66
2022-10-18T02:51:44.076Z,12.66
2022-10-18T02:56:46.956Z,12.75
2022-10-18T03:01:50.335Z,12.84
2022-10-18T03:06:53.289Z,12.71
2022-10-18T03:11:56.396Z,12.58
2022-10-18T03:16:59.398Z,12.49
2022-10-18T03:22:02.504Z,12.44
2022-10-18T03:27:05.507Z,12.39
2022-10-18T03:32:08.716Z,12.39
2022-10-18T03:37:12.436Z,12.38
2022-10-18T03:42:15.541Z,12.38
2022-10-18T03:47:19.060Z,12.35
2022-10-18T03:52:22.264Z,12.34
2022-10-18T03:57:25.577Z,12.35
2022-10-18T04:02:28.932Z,12.42
2022-10-18T04:07:32.454Z,12.49
2022-10-18T04:12:35.823Z,12.54
2022-10-18T04:17:40.150Z,12.56
2022-10-18T04:22:44.183Z,12.59
2022-10-18T04:27:47.898Z,12.60
2022-10-18T04:32:51.002Z,12.59
2022-10-18T04:37:54.313Z,12.58
2022-10-18T04:42:57.521Z,12.58
2022-10-18T04:48:01.344Z,12.59
2022-10-18T04:53:04.551Z,12.59
2022-10-18T04:58:07.451Z,12.62
2022-10-18T05:03:13.221Z,12.64
2022-10-18T05:08:16.432Z,12.70
2022-10-18T05:13:19.539Z,12.76
2022-10-18T05:18:22.742Z,12.82
2022-10-18T05:23:25.652Z,12.86
2022-10-18T05:28:44.106Z,12.90
2022-10-18T05:33:47.419Z,12.94
2022-10-18T05:38:50.937Z,12.99
2022-10-18T05:43:54.041Z,13.04
2022-10-18T05:48:57.277Z,13.10
2022-10-18T05:54:01.382Z,13.16
2022-10-18T05:59:12.415Z,13.20
2022-10-18T06:04:18.038Z,13.25
2022-10-18T06:09:21.242Z,13.32
2022-10-18T06:14:24.655Z,13.38
2022-10-18T06:19:27.968Z,13.45
2022-10-18T06:24:30.864Z,13.53
2022-10-18T06:29:34.073Z,13.65
2022-10-18T06:34:37.178Z,13.77
2022-10-18T06:39:41.318Z,13.85
2022-10-18T06:44:44.722Z,13.95
2022-10-18T06:49:48.237Z,14.04
2022-10-18T06:54:52.779Z,14.11
2022-10-18T06:59:55.881Z,14.20
2022-10-18T07:04:58.835Z,14.34
2022-10-18T07:10:01.823Z,14.47
2022-10-18T07:15:09.473Z,14.61
2022-10-18T07:20:13.123Z,14.80
2022-10-18T07:25:16.939Z,14.99
2022-10-18T07:30:20.352Z,15.15
2022-10-18T07:35:23.499Z,15.22
2022-10-18T07:40:26.873Z,15.26
2022-10-18T07:45:30.521Z,15.33
2022-10-18T07:50:34.209Z,15.39
2022-10-18T07:55:37.522Z,15.45
2022-10-18T08:00:40.931Z,15.51
2022-10-18T08:05:44.046Z,15.62
2022-10-18T08:10:47.652Z,15.72
2022-10-18T08:15:50.678Z,15.71
2022-10-18T08:20:53.968Z,15.65
2022-10-18T08:25:57.279Z,15.59
2022-10-18T08:31:13.081Z,15.60
2022-10-18T08:36:17.930Z,15.66
2022-10-18T08:41:45.611Z,15.78
2022-10-18T08:46:55.375Z,15.96
2022-10-18T08:51:59.194Z,16.17
2022-10-18T08:57:11.413Z,16.28
2022-10-18T09:02:39.611Z,16.27
2022-10-18T09:07:45.390Z,16.15
2022-10-18T09:13:18.894Z,16.00
2022-10-18T09:18:40.556Z,15.84
2022-10-18T09:24:06.576Z,15.78
2022-10-18T09:29:27.910Z,15.81
2022-10-18T09:34:58.054Z,15.91
2022-10-18T09:40:18.168Z,16.04
2022-10-18T09:45:38.154Z,16.14
2022-10-18T09:50:46.893Z,16.13
2022-10-18T09:56:02.287Z,16.12
2022-10-18T10:01:06.750Z,16.14
2022-10-18T10:06:12.701Z,16.11
2022-10-18T10:11:45.907Z,16.09
2022-10-18T10:16:48.910Z,16.06
2022-10-18T10:21:56.830Z,16.06
2022-10-18T10:27:07.179Z,16.05
2022-10-18T10:32:14.225Z,16.06
2022-10-18T10:37:25.603Z,16.06
2022-10-18T10:42:29.088Z,16.02
2022-10-18T10:47:34.578Z,15.97
2022-10-18T10:52:40.578Z,15.93
2022-10-18T10:57:50.283Z,15.88
2022-10-18T11:03:27.301Z,15.82
2022-10-18T11:08:41.398Z,15.84
2022-10-18T11:13:57.031Z,15.91
2022-10-18T11:20:01.114Z,15.95
2022-10-18T11:25:06.879Z,16.00
2022-10-18T11:30:24.934Z,16.02
2022-10-18T11:35:47.803Z,16.02
2022-10-18T11:41:12.943Z,16.01
2022-10-18T11:46:31.201Z,15.94
2022-10-18T11:52:09.357Z,15.89
2022-10-18T11:57:40.268Z,15.82
2022-10-18T12:03:21.673Z,15.76
2022-10-18T12:08:33.894Z,15.78
2022-10-18T12:13:46.727Z,15.85
2022-10-18T12:19:02.940Z,15.87
2022-10-18T12:24:16.356Z,15.89
2022-10-18T12:29:27.787Z,15.89
2022-10-18T12:34:47.174Z,15.86
2022-10-18T12:40:15.788Z,15.84
2022-10-18T12:45:28.804Z,15.81
2022-10-18T12:50:39.398Z,15.77
2022-10-18T12:55:48.849Z,15.73
2022-10-18T13:00:55.162Z,15.68
2022-10-18T13:06:01.780Z,15.63
2022-10-18T13:11:09.133Z,15.61
2022-10-18T13:16:41.112Z,15.62
2022-10-18T13:22:02.545Z,15.61
2022-10-18T13:27:46.460Z,15.59
2022-10-18T13:32:52.795Z,15.53
2022-10-18T13:38:00.297Z,15.45
2022-10-18T13:43:41.087Z,15.39
2022-10-18T13:48:51.460Z,15.31
2022-10-18T13:54:03.474Z,15.22
2022-10-18T13:59:25.574Z,15.13
2022-10-18T14:04:43.169Z,15.05
2022-10-18T14:09:56.103Z,14.97
2022-10-18T14:15:17.440Z,14.91
2022-10-18T14:20:32.718Z,14.87
2022-10-18T14:25:39.423Z,14.80
2022-10-18T14:31:10.190Z,14.72
2022-10-18T14:36:19.524Z,14.64
2022-10-18T14:41:27.135Z,14.57
2022-10-18T14:46:31.819Z,14.49
2022-10-18T14:51:37.038Z,14.43
2022-10-18T14:56:43.042Z,14.36
2022-10-18T15:01:57.171Z,14.29
2022-10-18T15:07:03.716Z,14.22
2022-10-18T15:12:08.251Z,14.16
2022-10-18T15:17:20.111Z,14.10
2022-10-18T15:22:31.900Z,14.04
2022-10-18T15:27:38.950Z,13.98
2022-10-18T15:32:52.671Z,13.93
2022-10-18T15:37:58.731Z,13.87
2022-10-18T15:43:26.024Z,13.83
2022-10-18T15:48:41.556Z,13.78
2022-10-18T15:53:52.609Z,13.74
2022-10-18T15:58:57.537Z,13.69
2022-10-18T16:04:05.350Z,13.67
2022-10-18T16:09:16.055Z,13.65
2022-10-18T16:14:21.646Z,13.64
2022-10-18T16:19:25.033Z,13.62
2022-10-18T16:24:28.238Z,13.60
2022-10-18T16:29:33.296Z,13.57
2022-10-18T16:34:36.701Z,13.52
2022-10-18T16:39:40.121Z,13.46
2022-10-18T16:44:44.040Z,13.42
2022-10-18T16:49:49.513Z,13.38
2022-10-18T16:54:53.223Z,13.34
2022-10-18T16:59:56.227Z,13.27
2022-10-18T17:04:59.434Z,13.19
2022-10-18T17:10:02.753Z,13.12
2022-10-18T17:15:09.546Z,13.04
2022-10-18T17:20:23.809Z,12.99
2022-10-18T17:25:28.623Z,12.94
2022-10-18T17:30:32.377Z,12.89
2022-10-18T17:35:36.007Z,12.83
2022-10-18T17:40:43.332Z,12.75
2022-10-18T17:45:53.808Z,12.68
2022-10-18T17:50:57.703Z,12.61
2022-10-18T17:56:05.224Z,12.52
2022-10-18T18:01:22.150Z,12.43
2022-10-18T18:06:35.224Z,12.39
2022-10-18T18:11:39.612Z,12.36
2022-10-18T18:16:46.387Z,12.33
2022-10-18T18:21:54.240Z,12.26
2022-10-18T18:26:58.560Z,12.18
2022-10-18T18:32:03.509Z,12.09
2022-10-18T18:37:08.356Z,12.00
2022-10-18T18:42:13.017Z,11.90
2022-10-18T18:52:22.186Z,11.68
2022-10-18T18:57:25.797Z,11.59
2022-10-18T19:02:29.210Z,11.52
2022-10-18T19:07:32.766Z,11.45
2022-10-18T19:12:36.854Z,11.39
2022-10-18T19:17:39.890Z,11.37
2022-10-18T19:22:44.232Z,11.33
2022-10-18T19:27:48.989Z,11.30
2022-10-18T19:32:59.830Z,11.24
2022-10-18T19:38:06.512Z,11.14
2022-10-18T19:43:10.135Z,11.04
2022-10-18T19:48:13.627Z,10.88
2022-10-18T19:53:17.386Z,10.73
2022-10-18T19:58:20.687Z,10.60
2022-10-18T20:03:24.718Z,10.46
2022-10-18T20:08:31.344Z,10.34
2022-10-18T20:13:35.429Z,10.19
2022-10-18T20:18:39.555Z,10.06
2022-10-18T20:23:44.404Z,9.94
2022-10-18T20:28:49.528Z,9.83
2022-10-18T20:34:04.743Z,9.73
2022-10-18T20:39:08.743Z,9.63
2022-10-18T20:44:14.548Z,9.54
2022-10-18T20:49:17.743Z,9.47
2022-10-18T20:54:20.960Z,9.45
2022-10-18T20:59:23.957Z,9.45
2022-10-18T21:04:27.367Z,9.41
2022-10-18T21:09:30.575Z,9.41
2022-10-18T21:14:33.782Z,9.45
2022-10-18T21:19:37.766Z,9.53
2022-10-18T21:24:42.763Z,9.61
2022-10-18T21:29:45.968Z,9.69
2022-10-18T21:34:49.073Z,9.77
2022-10-18T21:39:52.075Z,9.86
2022-10-18T21:44:55.285Z,9.93
2022-10-18T21:49:58.286Z,10.00
2022-10-18T21:55:01.397Z,10.06
2022-10-18T22:00:07.126Z,10.13
2022-10-18T22:05:12.210Z,10.18
2022-10-18T22:10:15.625Z,10.22
2022-10-18T22:15:18.833Z,10.28
2022-10-18T22:20:22.349Z,10.34
2022-10-18T22:25:25.454Z,10.34
2022-10-18T22:30:28.869Z,10.35
2022-10-18T22:35:33.205Z,10.36
2022-10-18T22:40:36.719Z,10.36
2022-10-18T22:45:40.807Z,10.35
2022-10-18T22:50:43.849Z,10.29
2022-10-18T22:55:49.002Z,10.18
2022-10-18T23:01:26.928Z,10.08
2022-10-18T23:06:31.674Z,10.01
2022-10-18T23:11:36.540Z,10.01
2022-10-18T23:16:39.826Z,10.00
2022-10-18T23:21:43.853Z,9.98
2022-10-18T23:26:47.062Z,9.93
2022-10-18T23:31:50.166Z,9.88
2022-10-18T23:36:53.274Z,9.83
2022-10-18T23:41:56.480Z,9.75
2022-10-18T23:47:00.100Z,9.69
2022-10-18T23:52:03.409Z,9.62
2022-10-18T23:57:06.412Z,9.58
